sensor_id;sensor_type;location;lat;lon;timestamp;pressure;altitude;pressure_sealevel;temperature;humidity
16255;BME280;8235;52.198;9.904;2023-07-30T00:00:22;100041.44;;;18.93;79.35
16255;BME280;8235;52.198;9.904;2023-07-30T00:02:49;100041.44;;;18.93;79.07
16255;BME280;8235;52.198;9.904;2023-07-30T00:05:15;100031.97;;;18.89;79.14
16255;BME280;8235;52.198;9.904;2023-07-30T00:07:43;100034.00;;;18.87;79.43
16255;BME280;8235;52.198;9.904;2023-07-30T00:10:10;100033.31;;;18.85;79.65
16255;BME280;8235;52.198;9.904;2023-07-30T00:12:36;100033.47;;;18.84;79.97
16255;BME280;8235;52.198;9.904;2023-07-30T00:15:03;100044.63;;;18.81;80.02
16255;BME280;8235;52.198;9.904;2023-07-30T00:17:30;100053.72;;;18.80;79.93
16255;BME280;8235;52.198;9.904;2023-07-30T00:19:56;100046.63;;;18.79;80.15
16255;BME280;8235;52.198;9.904;2023-07-30T00:22:23;100049.50;;;18.77;80.20
16255;BME280;8235;52.198;9.904;2023-07-30T00:24:51;100052.34;;;18.76;80.23
16255;BME280;8235;52.198;9.904;2023-07-30T00:27:17;100044.25;;;18.76;80.57
16255;BME280;8235;52.198;9.904;2023-07-30T00:29:43;100048.13;;;18.73;80.58
16255;BME280;8235;52.198;9.904;2023-07-30T00:32:10;100041.03;;;18.72;80.51
16255;BME280;8235;52.198;9.904;2023-07-30T00:34:36;100046.59;;;18.70;80.89
16255;BME280;8235;52.198;9.904;2023-07-30T00:37:03;100036.97;;;18.68;80.93
16255;BME280;8235;52.198;9.904;2023-07-30T00:39:30;100047.94;;;18.66;80.99
16255;BME280;8235;52.198;9.904;2023-07-30T00:41:58;100046.25;;;18.65;81.14
16255;BME280;8235;52.198;9.904;2023-07-30T00:44:24;100048.25;;;18.63;81.22
16255;BME280;8235;52.198;9.904;2023-07-30T00:46:51;100049.44;;;18.61;81.12
16255;BME280;8235;52.198;9.904;2023-07-30T00:49:17;100050.47;;;18.60;81.60
16255;BME280;8235;52.198;9.904;2023-07-30T00:51:44;100055.28;;;18.56;81.73
16255;BME280;8235;52.198;9.904;2023-07-30T00:54:11;100057.31;;;18.54;81.96
16255;BME280;8235;52.198;9.904;2023-07-30T00:56:41;100062.84;;;18.53;82.04
16255;BME280;8235;52.198;9.904;2023-07-30T00:59:13;100064.03;;;18.50;82.22
16255;BME280;8235;52.198;9.904;2023-07-30T01:01:41;100060.63;;;18.48;82.48
16255;BME280;8235;52.198;9.904;2023-07-30T01:04:09;100070.75;;;18.46;82.79
16255;BME280;8235;52.198;9.904;2023-07-30T01:06:35;100078.16;;;18.44;83.33
16255;BME280;8235;52.198;9.904;2023-07-30T01:09:02;100079.03;;;18.45;83.83
16255;BME280;8235;52.198;9.904;2023-07-30T01:11:29;100074.63;;;18.44;84.35
16255;BME280;8235;52.198;9.904;2023-07-30T01:13:56;100083.56;;;18.44;84.95
16255;BME280;8235;52.198;9.904;2023-07-30T01:16:24;100074.63;;;18.44;85.00
16255;BME280;8235;52.198;9.904;2023-07-30T01:18:51;100077.31;;;18.44;84.99
16255;BME280;8235;52.198;9.904;2023-07-30T01:21:21;100082.53;;;18.45;85.36
16255;BME280;8235;52.198;9.904;2023-07-30T01:23:48;100083.38;;;18.46;85.49
16255;BME280;8235;52.198;9.904;2023-07-30T01:26:19;100089.63;;;18.46;85.70
16255;BME280;8235;52.198;9.904;2023-07-30T01:28:51;100089.63;;;18.46;85.87
16255;BME280;8235;52.198;9.904;2023-07-30T01:31:22;100094.00;;;18.47;85.69
16255;BME280;8235;52.198;9.904;2023-07-30T01:33:52;100096.69;;;18.47;85.90
16255;BME280;8235;52.198;9.904;2023-07-30T01:36:21;100100.41;;;18.46;85.93
16255;BME280;8235;52.198;9.904;2023-07-30T01:38:49;100108.50;;;18.46;86.00
16255;BME280;8235;52.198;9.904;2023-07-30T01:41:16;100095.00;;;18.46;86.18
16255;BME280;8235;52.198;9.904;2023-07-30T01:43:42;100100.59;;;18.45;86.29
16255;BME280;8235;52.198;9.904;2023-07-30T01:46:09;100089.13;;;18.43;86.33
16255;BME280;8235;52.198;9.904;2023-07-30T01:48:35;100106.13;;;18.43;86.13
16255;BME280;8235;52.198;9.904;2023-07-30T01:51:02;100099.22;;;18.41;86.04
16255;BME280;8235;52.198;9.904;2023-07-30T01:53:30;100102.06;;;18.39;85.80
16255;BME280;8235;52.198;9.904;2023-07-30T01:55:56;100099.53;;;18.37;85.61
16255;BME280;8235;52.198;9.904;2023-07-30T01:58:22;100103.06;;;18.38;85.56
16255;BME280;8235;52.198;9.904;2023-07-30T02:00:49;100109.31;;;18.38;85.43
16255;BME280;8235;52.198;9.904;2023-07-30T02:03:15;100119.41;;;18.36;85.30
16255;BME280;8235;52.198;9.904;2023-07-30T02:05:42;100114.16;;;18.35;85.27
16255;BME280;8235;52.198;9.904;2023-07-30T02:08:08;100117.88;;;18.34;85.40
16255;BME280;8235;52.198;9.904;2023-07-30T02:10:36;100117.34;;;18.30;85.33
16255;BME280;8235;52.198;9.904;2023-07-30T02:13:02;100123.22;;;18.26;85.58
16255;BME280;8235;52.198;9.904;2023-07-30T02:15:29;100122.69;;;18.22;85.52
16255;BME280;8235;52.198;9.904;2023-07-30T02:17:55;100119.47;;;18.19;85.58
16255;BME280;8235;52.198;9.904;2023-07-30T02:20:22;100122.47;;;18.16;85.50
16255;BME280;8235;52.198;9.904;2023-07-30T02:22:48;100120.09;;;18.13;85.47
16255;BME280;8235;52.198;9.904;2023-07-30T02:25:15;100124.97;;;18.09;85.60
16255;BME280;8235;52.198;9.904;2023-07-30T02:27:42;100106.56;;;18.04;85.79
16255;BME280;8235;52.198;9.904;2023-07-30T02:30:09;100122.06;;;18.02;85.58
16255;BME280;8235;52.198;9.904;2023-07-30T02:32:36;100118.97;;;17.97;85.85
16255;BME280;8235;52.198;9.904;2023-07-30T02:35:03;100116.75;;;17.93;85.81
16255;BME280;8235;52.198;9.904;2023-07-30T02:37:29;100129.72;;;17.89;85.84
16255;BME280;8235;52.198;9.904;2023-07-30T02:39:56;100120.25;;;17.85;86.01
16255;BME280;8235;52.198;9.904;2023-07-30T02:42:22;100126.63;;;17.84;85.99
16255;BME280;8235;52.198;9.904;2023-07-30T02:44:50;100120.69;;;17.81;86.03
16255;BME280;8235;52.198;9.904;2023-07-30T02:47:17;100128.09;;;17.79;86.12
16255;BME280;8235;52.198;9.904;2023-07-30T02:49:43;100124.84;;;17.75;86.09
16255;BME280;8235;52.198;9.904;2023-07-30T02:52:09;100117.13;;;17.72;86.24
16255;BME280;8235;52.198;9.904;2023-07-30T02:54:36;100119.28;;;17.68;86.20
16255;BME280;8235;52.198;9.904;2023-07-30T02:57:03;100128.66;;;17.64;85.95
16255;BME280;8235;52.198;9.904;2023-07-30T02:59:29;100124.22;;;17.63;86.20
16255;BME280;8235;52.198;9.904;2023-07-30T03:01:57;100132.06;;;17.57;86.29
16255;BME280;8235;52.198;9.904;2023-07-30T03:04:24;100134.09;;;17.55;86.07
16255;BME280;8235;52.198;9.904;2023-07-30T03:06:50;100134.25;;;17.53;86.09
16255;BME280;8235;52.198;9.904;2023-07-30T03:09:17;100130.88;;;17.51;86.02
16255;BME280;8235;52.198;9.904;2023-07-30T03:11:43;100141.78;;;17.50;85.96
16255;BME280;8235;52.198;9.904;2023-07-30T03:14:10;100142.25;;;17.45;86.21
16255;BME280;8235;52.198;9.904;2023-07-30T03:16:36;100135.16;;;17.44;86.01
16255;BME280;8235;52.198;9.904;2023-07-30T03:19:04;100141.69;;;17.42;86.09
16255;BME280;8235;52.198;9.904;2023-07-30T03:21:30;100142.00;;;17.39;86.07
16255;BME280;8235;52.198;9.904;2023-07-30T03:23:57;100143.16;;;17.36;86.04
16255;BME280;8235;52.198;9.904;2023-07-30T03:26:23;100146.72;;;17.37;86.15
16255;BME280;8235;52.198;9.904;2023-07-30T03:28:50;100145.16;;;17.34;86.17
16255;BME280;8235;52.198;9.904;2023-07-30T03:31:17;100146.31;;;17.31;86.14
16255;BME280;8235;52.198;9.904;2023-07-30T03:33:43;100150.00;;;17.30;86.06
16255;BME280;8235;52.198;9.904;2023-07-30T03:36:12;100149.31;;;17.28;86.23
16255;BME280;8235;52.198;9.904;2023-07-30T03:38:40;100154.97;;;17.25;86.50
16255;BME280;8235;52.198;9.904;2023-07-30T03:41:06;100152.44;;;17.24;86.58
16255;BME280;8235;52.198;9.904;2023-07-30T03:43:33;100155.28;;;17.22;86.54
16255;BME280;8235;52.198;9.904;2023-07-30T03:45:59;100163.34;;;17.22;86.46
16255;BME280;8235;52.198;9.904;2023-07-30T03:48:26;100163.50;;;17.21;86.66
16255;BME280;8235;52.198;9.904;2023-07-30T03:50:53;100166.53;;;17.18;86.59
16255;BME280;8235;52.198;9.904;2023-07-30T03:53:21;100161.16;;;17.18;86.71
16255;BME280;8235;52.198;9.904;2023-07-30T03:55:47;100163.97;;;17.16;86.76
16255;BME280;8235;52.198;9.904;2023-07-30T03:58:14;100164.28;;;17.13;86.85
16255;BME280;8235;52.198;9.904;2023-07-30T04:00:41;100164.28;;;17.13;86.91
16255;BME280;8235;52.198;9.904;2023-07-30T04:03:07;100166.28;;;17.11;86.78
16255;BME280;8235;52.198;9.904;2023-07-30T04:05:34;100169.25;;;17.08;86.77
16255;BME280;8235;52.198;9.904;2023-07-30T04:08:00;100167.56;;;17.07;87.09
16255;BME280;8235;52.198;9.904;2023-07-30T04:10:28;100163.19;;;17.06;86.93
16255;BME280;8235;52.198;9.904;2023-07-30T04:12:54;100167.72;;;17.06;86.86
16255;BME280;8235;52.198;9.904;2023-07-30T04:15:21;100174.22;;;17.03;86.96
16255;BME280;8235;52.198;9.904;2023-07-30T04:17:47;100182.31;;;17.03;86.98
16255;BME280;8235;52.198;9.904;2023-07-30T04:20:14;100178.75;;;17.02;87.11
16255;BME280;8235;52.198;9.904;2023-07-30T04:22:40;100180.59;;;17.02;87.09
16255;BME280;8235;52.198;9.904;2023-07-30T04:25:08;100177.91;;;17.02;87.04
16255;BME280;8235;52.198;9.904;2023-07-30T04:27:37;100176.25;;;17.01;87.11
16255;BME280;8235;52.198;9.904;2023-07-30T04:30:04;100189.72;;;17.01;87.09
16255;BME280;8235;52.198;9.904;2023-07-30T04:32:31;100178.94;;;17.01;87.27
16255;BME280;8235;52.198;9.904;2023-07-30T04:34:58;100183.28;;;17.02;87.25
16255;BME280;8235;52.198;9.904;2023-07-30T04:37:24;100177.91;;;17.02;87.06
16255;BME280;8235;52.198;9.904;2023-07-30T04:39:50;100180.47;;;17.04;87.27
16255;BME280;8235;52.198;9.904;2023-07-30T04:42:17;100181.16;;;17.06;87.11
16255;BME280;8235;52.198;9.904;2023-07-30T04:44:45;100182.84;;;17.07;87.31
16255;BME280;8235;52.198;9.904;2023-07-30T04:47:11;100184.41;;;17.09;87.19
16255;BME280;8235;52.198;9.904;2023-07-30T04:49:38;100177.19;;;17.10;87.23
16255;BME280;8235;52.198;9.904;2023-07-30T04:52:06;100182.56;;;17.10;87.33
16255;BME280;8235;52.198;9.904;2023-07-30T04:54:33;100183.41;;;17.10;87.85
16255;BME280;8235;52.198;9.904;2023-07-30T04:57:01;100184.13;;;17.12;88.14
16255;BME280;8235;52.198;9.904;2023-07-30T04:59:28;100190.91;;;17.16;88.33
16255;BME280;8235;52.198;9.904;2023-07-30T05:01:56;100188.91;;;17.18;88.86
16255;BME280;8235;52.198;9.904;2023-07-30T05:04:22;100187.72;;;17.21;89.04
16255;BME280;8235;52.198;9.904;2023-07-30T05:06:49;100183.88;;;17.23;89.35
16255;BME280;8235;52.198;9.904;2023-07-30T05:09:15;100185.28;;;17.27;89.64
16255;BME280;8235;52.198;9.904;2023-07-30T05:11:41;100177.06;;;17.29;89.90
16255;BME280;8235;52.198;9.904;2023-07-30T05:14:08;100175.78;;;17.33;90.00
16255;BME280;8235;52.198;9.904;2023-07-30T05:16:34;100178.16;;;17.36;90.20
16255;BME280;8235;52.198;9.904;2023-07-30T05:19:03;100174.28;;;17.39;90.41
16255;BME280;8235;52.198;9.904;2023-07-30T05:21:29;100174.00;;;17.42;90.33
16255;BME280;8235;52.198;9.904;2023-07-30T05:23:56;100177.38;;;17.44;90.34
16255;BME280;8235;52.198;9.904;2023-07-30T05:26:22;100177.09;;;17.47;90.41
16255;BME280;8235;52.198;9.904;2023-07-30T05:28:49;100177.78;;;17.49;90.56
16255;BME280;8235;52.198;9.904;2023-07-30T05:31:15;100179.31;;;17.51;90.34
16255;BME280;8235;52.198;9.904;2023-07-30T05:33:42;100176.47;;;17.53;90.15
16255;BME280;8235;52.198;9.904;2023-07-30T05:36:09;100181.53;;;17.56;89.47
16255;BME280;8235;52.198;9.904;2023-07-30T05:38:36;100181.38;;;17.57;89.36
16255;BME280;8235;52.198;9.904;2023-07-30T05:41:02;100189.31;;;17.59;89.32
16255;BME280;8235;52.198;9.904;2023-07-30T05:43:29;100182.63;;;17.63;88.99
16255;BME280;8235;52.198;9.904;2023-07-30T05:45:55;100182.91;;;17.69;88.79
16255;BME280;8235;52.198;9.904;2023-07-30T05:48:22;100171.50;;;17.76;88.42
16255;BME280;8235;52.198;9.904;2023-07-30T05:50:48;100175.44;;;17.81;87.66
16255;BME280;8235;52.198;9.904;2023-07-30T05:53:16;100172.97;;;17.88;87.13
16255;BME280;8235;52.198;9.904;2023-07-30T05:55:43;100177.56;;;17.95;85.84
16255;BME280;8235;52.198;9.904;2023-07-30T05:58:09;100179.50;;;18.03;85.66
16255;BME280;8235;52.198;9.904;2023-07-30T06:00:36;100181.06;;;18.14;84.54
16255;BME280;8235;52.198;9.904;2023-07-30T06:03:02;100179.28;;;18.22;83.67
16255;BME280;8235;52.198;9.904;2023-07-30T06:05:31;100177.34;;;18.32;82.82
16255;BME280;8235;52.198;9.904;2023-07-30T06:07:57;100178.41;;;18.39;81.86
16255;BME280;8235;52.198;9.904;2023-07-30T06:10:26;100185.69;;;18.47;81.09
16255;BME280;8235;52.198;9.904;2023-07-30T06:12:52;100183.75;;;18.57;80.77
16255;BME280;8235;52.198;9.904;2023-07-30T06:15:18;100180.78;;;18.68;79.01
16255;BME280;8235;52.198;9.904;2023-07-30T06:17:45;100175.94;;;18.72;78.49
16255;BME280;8235;52.198;9.904;2023-07-30T06:20:11;100174.78;;;18.83;77.96
16255;BME280;8235;52.198;9.904;2023-07-30T06:22:38;100173.66;;;18.93;76.92
16255;BME280;8235;52.198;9.904;2023-07-30T06:25:05;100174.22;;;19.05;75.32
16255;BME280;8235;52.198;9.904;2023-07-30T06:27:33;100172.03;;;19.08;74.51
16255;BME280;8235;52.198;9.904;2023-07-30T06:29:59;100173.94;;;19.16;73.72
16255;BME280;8235;52.198;9.904;2023-07-30T06:32:26;100169.53;;;19.23;73.50
16255;BME280;8235;52.198;9.904;2023-07-30T06:34:52;100177.69;;;19.31;72.27
16255;BME280;8235;52.198;9.904;2023-07-30T06:37:19;100167.22;;;19.36;71.01
16255;BME280;8235;52.198;9.904;2023-07-30T06:39:45;100176.50;;;19.42;69.71
16255;BME280;8235;52.198;9.904;2023-07-30T06:42:12;100170.31;;;19.50;69.35
16255;BME280;8235;52.198;9.904;2023-07-30T06:44:40;100176.56;;;19.58;69.48
16255;BME280;8235;52.198;9.904;2023-07-30T06:47:07;100176.06;;;19.71;68.99
16255;BME280;8235;52.198;9.904;2023-07-30T06:49:33;100175.75;;;19.82;67.42
16255;BME280;8235;52.198;9.904;2023-07-30T06:52:00;100173.56;;;19.86;66.15
16255;BME280;8235;52.198;9.904;2023-07-30T06:54:28;100185.22;;;19.94;64.61
16255;BME280;8235;52.198;9.904;2023-07-30T06:56:54;100179.47;;;19.97;64.02
16255;BME280;8235;52.198;9.904;2023-07-30T06:59:21;100183.53;;;20.01;63.48
16255;BME280;8235;52.198;9.904;2023-07-30T07:01:49;100189.09;;;20.08;63.65
16255;BME280;8235;52.198;9.904;2023-07-30T07:04:15;100196.03;;;20.19;63.04
16255;BME280;8235;52.198;9.904;2023-07-30T07:06:42;100200.41;;;20.28;62.29
16255;BME280;8235;52.198;9.904;2023-07-30T07:09:08;100200.13;;;20.39;62.60
16255;BME280;8235;52.198;9.904;2023-07-30T07:11:35;100200.09;;;20.47;61.61
16255;BME280;8235;52.198;9.904;2023-07-30T07:14:01;100201.09;;;20.54;60.99
16255;BME280;8235;52.198;9.904;2023-07-30T07:16:28;100215.44;;;20.63;61.06
16255;BME280;8235;52.198;9.904;2023-07-30T07:18:56;100218.97;;;20.71;60.30
16255;BME280;8235;52.198;9.904;2023-07-30T07:21:22;100209.81;;;20.80;59.96
16255;BME280;8235;52.198;9.904;2023-07-30T07:23:49;100206.41;;;20.87;59.44
16255;BME280;8235;52.198;9.904;2023-07-30T07:26:15;100202.00;;;20.94;59.71
16255;BME280;8235;52.198;9.904;2023-07-30T07:28:42;100203.31;;;20.98;58.25
16255;BME280;8235;52.198;9.904;2023-07-30T07:31:08;100208.03;;;21.04;58.52
16255;BME280;8235;52.198;9.904;2023-07-30T07:33:34;100207.53;;;21.08;57.29
16255;BME280;8235;52.198;9.904;2023-07-30T07:36:04;100208.53;;;21.07;57.16
16255;BME280;8235;52.198;9.904;2023-07-30T07:38:31;100201.03;;;21.18;56.83
16255;BME280;8235;52.198;9.904;2023-07-30T07:40:58;100214.28;;;21.21;56.60
16255;BME280;8235;52.198;9.904;2023-07-30T07:43:24;100212.84;;;21.33;57.22
16255;BME280;8235;52.198;9.904;2023-07-30T07:45:51;100211.97;;;21.40;56.40
16255;BME280;8235;52.198;9.904;2023-07-30T07:48:18;100205.63;;;21.56;55.86
16255;BME280;8235;52.198;9.904;2023-07-30T07:50:45;100214.56;;;21.65;54.78
16255;BME280;8235;52.198;9.904;2023-07-30T07:53:12;100224.19;;;21.67;54.97
16255;BME280;8235;52.198;9.904;2023-07-30T07:55:39;100219.22;;;21.71;54.61
16255;BME280;8235;52.198;9.904;2023-07-30T07:58:05;100212.09;;;21.78;54.57
16255;BME280;8235;52.198;9.904;2023-07-30T08:00:32;100224.94;;;21.84;54.10
16255;BME280;8235;52.198;9.904;2023-07-30T08:02:58;100232.63;;;21.95;53.32
16255;BME280;8235;52.198;9.904;2023-07-30T08:05:25;100220.09;;;22.02;53.20
16255;BME280;8235;52.198;9.904;2023-07-30T08:07:51;100233.75;;;22.09;53.07
16255;BME280;8235;52.198;9.904;2023-07-30T08:10:19;100238.28;;;22.16;53.53
16255;BME280;8235;52.198;9.904;2023-07-30T08:12:46;100239.22;;;22.24;52.58
16255;BME280;8235;52.198;9.904;2023-07-30T08:15:14;100238.66;;;22.28;51.97
16255;BME280;8235;52.198;9.904;2023-07-30T08:17:40;100238.78;;;22.35;51.90
16255;BME280;8235;52.198;9.904;2023-07-30T08:20:07;100230.75;;;22.41;52.10
16255;BME280;8235;52.198;9.904;2023-07-30T08:22:34;100228.88;;;22.42;51.00
16255;BME280;8235;52.198;9.904;2023-07-30T08:25:01;100228.50;;;22.45;51.11
16255;BME280;8235;52.198;9.904;2023-07-30T08:27:29;100226.75;;;22.52;49.98
16255;BME280;8235;52.198;9.904;2023-07-30T08:29:55;100208.69;;;22.59;50.51
16255;BME280;8235;52.198;9.904;2023-07-30T08:32:22;100221.81;;;22.56;49.79
16255;BME280;8235;52.198;9.904;2023-07-30T08:34:48;100214.50;;;22.56;49.70
16255;BME280;8235;52.198;9.904;2023-07-30T08:37:15;100206.81;;;22.60;50.28
16255;BME280;8235;52.198;9.904;2023-07-30T08:39:41;100203.47;;;22.72;50.84
16255;BME280;8235;52.198;9.904;2023-07-30T08:42:08;100199.78;;;22.88;49.54
16255;BME280;8235;52.198;9.904;2023-07-30T08:44:35;100205.94;;;22.97;49.36
16255;BME280;8235;52.198;9.904;2023-07-30T08:47:02;100203.78;;;23.07;49.21
16255;BME280;8235;52.198;9.904;2023-07-30T08:49:30;100207.88;;;23.17;48.89
16255;BME280;8235;52.198;9.904;2023-07-30T08:51:58;100198.16;;;23.23;47.84
16255;BME280;8235;52.198;9.904;2023-07-30T08:54:26;100188.78;;;23.26;47.99
16255;BME280;8235;52.198;9.904;2023-07-30T08:56:54;100195.91;;;23.27;48.07
16255;BME280;8235;52.198;9.904;2023-07-30T08:59:21;100193.25;;;23.33;48.24
16255;BME280;8235;52.198;9.904;2023-07-30T09:01:51;100192.94;;;23.43;47.47
16255;BME280;8235;52.198;9.904;2023-07-30T09:04:19;100195.72;;;23.49;48.24
16255;BME280;8235;52.198;9.904;2023-07-30T09:06:48;100185.16;;;23.54;47.51
16255;BME280;8235;52.198;9.904;2023-07-30T09:09:13;100185.81;;;23.57;47.64
16255;BME280;8235;52.198;9.904;2023-07-30T09:11:40;100192.28;;;23.56;48.08
16255;BME280;8235;52.198;9.904;2023-07-30T09:14:06;100189.19;;;23.59;48.14
16255;BME280;8235;52.198;9.904;2023-07-30T09:16:33;100199.03;;;23.60;47.71
16255;BME280;8235;52.198;9.904;2023-07-30T09:19:01;100196.50;;;23.58;47.86
16255;BME280;8235;52.198;9.904;2023-07-30T09:21:30;100190.69;;;23.61;47.71
16255;BME280;8235;52.198;9.904;2023-07-30T09:23:57;100203.63;;;23.59;47.89
16255;BME280;8235;52.198;9.904;2023-07-30T09:26:28;100209.63;;;23.54;47.95
16255;BME280;8235;52.198;9.904;2023-07-30T09:28:55;100211.84;;;23.51;47.85
16255;BME280;8235;52.198;9.904;2023-07-30T09:31:22;100208.88;;;23.46;48.13
16255;BME280;8235;52.198;9.904;2023-07-30T09:33:48;100220.78;;;23.45;48.37
16255;BME280;8235;52.198;9.904;2023-07-30T09:36:18;100213.25;;;23.47;48.55
16255;BME280;8235;52.198;9.904;2023-07-30T09:38:45;100226.03;;;23.46;47.85
16255;BME280;8235;52.198;9.904;2023-07-30T09:41:12;100227.44;;;23.42;48.50
16255;BME280;8235;52.198;9.904;2023-07-30T09:43:39;100238.78;;;23.31;48.68
16255;BME280;8235;52.198;9.904;2023-07-30T09:46:06;100231.88;;;23.29;49.06
16255;BME280;8235;52.198;9.904;2023-07-30T09:48:34;100230.63;;;23.31;49.00
16255;BME280;8235;52.198;9.904;2023-07-30T09:51:02;100239.63;;;23.32;48.89
16255;BME280;8235;52.198;9.904;2023-07-30T09:53:31;100234.38;;;23.30;49.27
16255;BME280;8235;52.198;9.904;2023-07-30T09:55:59;100241.50;;;23.31;49.70
16255;BME280;8235;52.198;9.904;2023-07-30T09:58:26;100249.00;;;23.29;49.35
16255;BME280;8235;52.198;9.904;2023-07-30T10:00:53;100233.47;;;23.23;49.55
16255;BME280;8235;52.198;9.904;2023-07-30T10:03:20;100241.34;;;23.18;49.68
16255;BME280;8235;52.198;9.904;2023-07-30T10:05:47;100243.75;;;23.13;49.87
16255;BME280;8235;52.198;9.904;2023-07-30T10:08:19;100239.94;;;23.07;50.28
16255;BME280;8235;52.198;9.904;2023-07-30T10:10:48;100244.25;;;23.02;49.93
16255;BME280;8235;52.198;9.904;2023-07-30T10:13:16;100251.06;;;22.98;50.42
16255;BME280;8235;52.198;9.904;2023-07-30T10:15:43;100258.13;;;22.92;50.73
16255;BME280;8235;52.198;9.904;2023-07-30T10:18:10;100267.84;;;22.87;51.11
16255;BME280;8235;52.198;9.904;2023-07-30T10:20:37;100267.06;;;22.78;51.29
16255;BME280;8235;52.198;9.904;2023-07-30T10:23:05;100268.81;;;22.71;51.47
16255;BME280;8235;52.198;9.904;2023-07-30T10:25:42;100280.59;;;22.63;51.29
16255;BME280;8235;52.198;9.904;2023-07-30T10:28:26;100284.06;;;22.57;51.68
16255;BME280;8235;52.198;9.904;2023-07-30T10:30:55;100287.50;;;22.51;51.71
16255;BME280;8235;52.198;9.904;2023-07-30T10:33:22;100289.22;;;22.44;52.15
16255;BME280;8235;52.198;9.904;2023-07-30T10:35:54;100286.88;;;22.41;52.02
16255;BME280;8235;52.198;9.904;2023-07-30T10:38:22;100293.91;;;22.35;52.28
16255;BME280;8235;52.198;9.904;2023-07-30T10:41:01;100287.00;;;22.25;51.94
16255;BME280;8235;52.198;9.904;2023-07-30T10:43:29;100293.84;;;22.21;51.99
16255;BME280;8235;52.198;9.904;2023-07-30T10:45:56;100298.97;;;22.15;52.26
16255;BME280;8235;52.198;9.904;2023-07-30T10:48:30;100295.28;;;22.08;52.55
16255;BME280;8235;52.198;9.904;2023-07-30T10:50:56;100298.34;;;22.05;52.71
16255;BME280;8235;52.198;9.904;2023-07-30T10:53:23;100301.91;;;22.06;53.53
16255;BME280;8235;52.198;9.904;2023-07-30T10:55:49;100310.88;;;22.06;53.58
16255;BME280;8235;52.198;9.904;2023-07-30T10:58:18;100306.00;;;22.02;53.80
16255;BME280;8235;52.198;9.904;2023-07-30T11:00:45;100293.63;;;21.99;54.00
16255;BME280;8235;52.198;9.904;2023-07-30T11:03:12;100299.75;;;21.93;54.42
16255;BME280;8235;52.198;9.904;2023-07-30T11:05:38;100299.75;;;21.93;54.74
16255;BME280;8235;52.198;9.904;2023-07-30T11:08:05;100296.88;;;21.95;55.19
16255;BME280;8235;52.198;9.904;2023-07-30T11:10:31;100307.72;;;21.95;55.10
16255;BME280;8235;52.198;9.904;2023-07-30T11:12:58;100294.50;;;21.92;55.30
16255;BME280;8235;52.198;9.904;2023-07-30T11:15:25;100297.56;;;21.89;55.61
16255;BME280;8235;52.198;9.904;2023-07-30T11:17:53;100295.88;;;21.88;55.92
16255;BME280;8235;52.198;9.904;2023-07-30T11:20:23;100287.91;;;21.86;56.08
16255;BME280;8235;52.198;9.904;2023-07-30T11:22:52;100288.13;;;21.85;56.25
16255;BME280;8235;52.198;9.904;2023-07-30T11:25:18;100290.00;;;21.84;55.65
16255;BME280;8235;52.198;9.904;2023-07-30T11:27:45;100282.03;;;21.82;55.64
16255;BME280;8235;52.198;9.904;2023-07-30T11:30:12;100274.75;;;21.83;55.89
16255;BME280;8235;52.198;9.904;2023-07-30T11:32:38;100276.06;;;21.87;56.18
16255;BME280;8235;52.198;9.904;2023-07-30T11:35:07;100273.00;;;21.90;56.11
16255;BME280;8235;52.198;9.904;2023-07-30T11:37:34;100279.94;;;21.93;55.96
16255;BME280;8235;52.198;9.904;2023-07-30T11:40:06;100284.81;;;21.97;56.19
16255;BME280;8235;52.198;9.904;2023-07-30T11:42:33;100278.06;;;22.01;55.75
16255;BME280;8235;52.198;9.904;2023-07-30T11:45:18;100277.88;;;22.03;55.31
16255;BME280;8235;52.198;9.904;2023-07-30T11:47:45;100276.19;;;22.02;54.63
16255;BME280;8235;52.198;9.904;2023-07-30T11:50:13;100279.06;;;22.00;54.40
16255;BME280;8235;52.198;9.904;2023-07-30T11:52:51;100275.63;;;22.06;54.52
16255;BME280;8235;52.198;9.904;2023-07-30T11:55:18;100279.81;;;22.17;54.82
16255;BME280;8235;52.198;9.904;2023-07-30T11:57:45;100286.16;;;22.24;54.51
16255;BME280;8235;52.198;9.904;2023-07-30T12:00:12;100284.13;;;22.26;54.24
16255;BME280;8235;52.198;9.904;2023-07-30T12:02:38;100290.75;;;22.24;54.27
16255;BME280;8235;52.198;9.904;2023-07-30T12:05:06;100286.72;;;22.20;54.46
16255;BME280;8235;52.198;9.904;2023-07-30T12:07:34;100280.28;;;22.21;54.79
16255;BME280;8235;52.198;9.904;2023-07-30T12:10:07;100282.44;;;22.25;55.04
16255;BME280;8235;52.198;9.904;2023-07-30T12:12:33;100274.59;;;22.30;54.68
16255;BME280;8235;52.198;9.904;2023-07-30T12:15:00;100282.38;;;22.33;54.23
16255;BME280;8235;52.198;9.904;2023-07-30T12:17:26;100270.31;;;22.36;54.02
16255;BME280;8235;52.198;9.904;2023-07-30T12:19:53;100269.13;;;22.38;53.90
16255;BME280;8235;52.198;9.904;2023-07-30T12:22:19;100264.31;;;22.40;53.29
16255;BME280;8235;52.198;9.904;2023-07-30T12:24:47;100272.47;;;22.40;52.85
16255;BME280;8235;52.198;9.904;2023-07-30T12:27:14;100275.41;;;22.39;52.82
16255;BME280;8235;52.198;9.904;2023-07-30T12:29:40;100273.72;;;22.38;53.07
16255;BME280;8235;52.198;9.904;2023-07-30T12:32:08;100277.72;;;22.42;53.34
16255;BME280;8235;52.198;9.904;2023-07-30T12:34:34;100262.59;;;22.47;53.38
16255;BME280;8235;52.198;9.904;2023-07-30T12:37:00;100258.13;;;22.55;53.02
16255;BME280;8235;52.198;9.904;2023-07-30T12:39:27;100254.47;;;22.62;52.27
16255;BME280;8235;52.198;9.904;2023-07-30T12:41:55;100260.09;;;22.75;52.18
16255;BME280;8235;52.198;9.904;2023-07-30T12:44:21;100252.56;;;22.85;52.38
16255;BME280;8235;52.198;9.904;2023-07-30T12:46:48;100243.59;;;23.00;51.79
16255;BME280;8235;52.198;9.904;2023-07-30T12:49:14;100238.06;;;23.08;50.59
16255;BME280;8235;52.198;9.904;2023-07-30T12:51:41;100258.19;;;23.13;49.49
16255;BME280;8235;52.198;9.904;2023-07-30T12:54:07;100237.09;;;23.15;49.35
16255;BME280;8235;52.198;9.904;2023-07-30T12:56:33;100231.78;;;23.22;49.05
16255;BME280;8235;52.198;9.904;2023-07-30T12:59:01;100227.66;;;23.26;48.52